Terminal Aerodrome Forecast
Issued by NWS Mt. Holly, NJ

Home | Current Version | Previous Version | Text Only | Print | Product List | Glossary On
Versions: 1 2 3 4 5 6 7 8 9 10 11 12 13 14 15 16 17 18 19 20 21 22 23 24 25 26 27 28
000
FTUS41 KPHI 290500 RRA
TAFPHL
TAF
KPHL 290546Z 2906/3012 VRB04KT P6SM SKC
     FM291700 15007KT P6SM BKN100
     FM300100 17008KT 4SM -SN OVC040
     FM300200 18007KT 2SM -SN FEW010 OVC020
     FM300500 20006KT 5SM -SHSN FEW010 OVC025
     FM300700 25009KT P6SM SCT025 OVC060=

USA.gov is the U.S. government's official web portal to all federal, state and local government web resources and services.